createdAt,value
2017-03-01T00:01:02.934Z,983.59
2017-03-01T00:02:13.133Z,983.6
2017-03-01T00:03:22.442Z,983.63
2017-03-01T00:04:32.271Z,983.6
2017-03-01T00:05:41.611Z,983.66
2017-03-01T00:06:50.918Z,983.65
2017-03-01T00:08:00.239Z,983.56
2017-03-01T00:09:09.547Z,983.61
2017-03-01T00:10:18.933Z,983.66
2017-03-01T00:11:28.686Z,983.7
2017-03-01T00:12:38.007Z,983.69
2017-03-01T00:13:47.780Z,983.75
2017-03-01T00:14:57.982Z,983.72
2017-03-01T00:16:07.367Z,983.75
2017-03-01T00:17:16.688Z,983.88
2017-03-01T00:18:26.014Z,983.87
2017-03-01T00:19:35.785Z,983.9
2017-03-01T00:20:45.560Z,983.87
2017-03-01T00:21:54.941Z,983.9
2017-03-01T00:23:04.256Z,983.87
2017-03-01T00:24:14.023Z,983.9
2017-03-01T00:25:23.344Z,983.93
2017-03-01T00:26:33.094Z,983.91
2017-03-01T00:27:42.471Z,983.89
2017-03-01T00:28:51.796Z,983.88
2017-03-01T00:30:01.561Z,983.89
2017-03-01T00:31:10.902Z,983.87
2017-03-01T00:32:20.252Z,983.9
2017-03-01T00:33:30.097Z,983.86
2017-03-01T00:34:39.422Z,983.85
2017-03-01T00:35:48.735Z,983.86
2017-03-01T00:36:58.500Z,983.85
2017-03-01T00:38:07.852Z,983.88
2017-03-01T00:39:18.110Z,983.87
2017-03-01T00:40:27.874Z,983.89
2017-03-01T00:41:37.633Z,983.88
2017-03-01T00:42:46.954Z,983.92
2017-03-01T00:43:56.295Z,983.91
2017-03-01T00:45:06.093Z,983.95
2017-03-01T00:46:15.845Z,983.94
2017-03-01T00:47:25.615Z,984.01
2017-03-01T00:48:34.960Z,984.01
2017-03-01T00:49:44.736Z,984.06
2017-03-01T00:50:54.109Z,984.04
2017-03-01T00:52:03.427Z,983.98
2017-03-01T00:53:12.744Z,984.03
2017-03-01T00:54:22.082Z,983.98
2017-03-01T00:55:32.279Z,984.06
2017-03-01T00:56:41.660Z,984.02
2017-03-01T00:57:50.981Z,984.03
2017-03-01T00:59:00.310Z,983.95
2017-03-01T01:00:09.635Z,983.98
2017-03-01T01:01:18.941Z,984
2017-03-01T01:02:29.404Z,983.97
2017-03-01T01:03:39.165Z,983.99
2017-03-01T01:04:48.963Z,983.96
2017-03-01T01:05:58.706Z,983.97
2017-03-01T01:07:08.025Z,984
2017-03-01T01:08:18.803Z,983.98
2017-03-01T01:09:28.589Z,983.99
2017-03-01T01:10:37.926Z,984
2017-03-01T01:11:47.260Z,983.98
2017-03-01T01:12:56.588Z,983.98
2017-03-01T01:14:05.957Z,983.99
2017-03-01T01:15:15.303Z,984.06
2017-03-01T01:16:24.631Z,984.06
2017-03-01T01:17:33.945Z,984.08
2017-03-01T01:18:43.278Z,984.11
2017-03-01T01:19:53.079Z,984.05
2017-03-01T01:21:02.413Z,984.06
2017-03-01T01:22:12.162Z,984.1
2017-03-01T01:23:21.476Z,984.08
2017-03-01T01:24:30.815Z,984.1
2017-03-01T01:25:40.661Z,984.05
2017-03-01T01:26:49.987Z,984.05
2017-03-01T01:27:59.308Z,984.05
2017-03-01T01:29:08.653Z,984.04
2017-03-01T01:30:18.439Z,984.02
2017-03-01T01:31:27.823Z,984.06
2017-03-01T01:32:37.148Z,984.06
2017-03-01T01:33:46.473Z,984.09
2017-03-01T01:34:55.783Z,984.13
2017-03-01T01:36:05.104Z,984.15
2017-03-01T01:37:14.473Z,984.18
2017-03-01T01:38:23.810Z,984.13
2017-03-01T01:39:33.144Z,984.12
2017-03-01T01:40:42.896Z,984.07
2017-03-01T01:41:52.206Z,984.07
2017-03-01T01:43:01.735Z,984.1
2017-03-01T01:44:11.104Z,984.08
2017-03-01T01:45:20.441Z,984.03
2017-03-01T01:46:29.757Z,984.02
2017-03-01T01:47:39.960Z,984.03
2017-03-01T01:48:50.649Z,984.01
2017-03-01T01:50:00.459Z,984.02
2017-03-01T01:51:09.777Z,984.07
2017-03-01T01:52:19.101Z,984.05
2017-03-01T01:53:28.438Z,984
2017-03-01T01:54:37.830Z,984.04
2017-03-01T01:55:47.158Z,984
2017-03-01T01:56:56.936Z,983.97
2017-03-01T01:58:07.142Z,983.98
2017-03-01T01:59:16.454Z,983.99
2017-03-01T02:00:27.161Z,983.98
2017-03-01T02:01:36.478Z,984.02
2017-03-01T02:02:45.794Z,984.02
2017-03-01T02:03:55.104Z,984.09
2017-03-01T02:05:04.442Z,984.11
2017-03-01T02:06:13.845Z,984.12
2017-03-01T02:07:23.598Z,984.16
2017-03-01T02:08:33.357Z,984.14
2017-03-01T02:09:42.673Z,984.11
2017-03-01T02:10:52.023Z,984.08
2017-03-01T02:12:01.396Z,984.06
2017-03-01T02:13:10.713Z,984.11
2017-03-01T02:14:20.482Z,984.08
2017-03-01T02:15:29.808Z,984.08
2017-03-01T02:16:39.129Z,984.06
2017-03-01T02:17:49.094Z,984.07
2017-03-01T02:18:58.439Z,984.06
2017-03-01T02:20:07.773Z,984.03
2017-03-01T02:21:18.423Z,984.07
2017-03-01T02:22:34.043Z,984.09
2017-03-01T02:23:43.879Z,984.1
2017-03-01T02:24:54.936Z,984.12
2017-03-01T02:26:05.129Z,984.1
2017-03-01T02:27:15.751Z,984.08
2017-03-01T02:28:26.377Z,984.11
2017-03-01T02:29:36.622Z,984.08
2017-03-01T02:30:46.387Z,984.11
2017-03-01T02:31:55.720Z,984.15
2017-03-01T02:33:05.908Z,984.21
2017-03-01T02:34:15.653Z,984.22
2017-03-01T02:35:25.899Z,984.27
2017-03-01T02:36:36.981Z,984.27
2017-03-01T02:37:46.304Z,984.29
2017-03-01T02:38:56.943Z,984.25
2017-03-01T02:40:07.131Z,984.26
2017-03-01T02:41:17.368Z,984.25
2017-03-01T02:42:27.561Z,984.18
2017-03-01T02:43:38.179Z,984.2
2017-03-01T02:44:48.373Z,984.18
2017-03-01T02:45:59.000Z,984.17
2017-03-01T02:47:09.688Z,984.21
2017-03-01T02:48:19.880Z,984.2
2017-03-01T02:49:29.642Z,984.24
2017-03-01T02:50:39.819Z,984.2
2017-03-01T02:51:49.555Z,984.21
2017-03-01T02:52:59.813Z,984.26
2017-03-01T02:54:10.006Z,984.23
2017-03-01T02:55:19.788Z,984.25
2017-03-01T02:56:29.992Z,984.26
2017-03-01T02:57:40.601Z,984.23
2017-03-01T02:58:51.286Z,984.23
2017-03-01T03:00:01.475Z,984.23
2017-03-01T03:01:12.552Z,984.23
2017-03-01T03:02:23.178Z,984.26
2017-03-01T03:03:32.492Z,984.25
2017-03-01T03:04:41.856Z,984.26
2017-03-01T03:05:52.039Z,984.28
2017-03-01T03:07:02.650Z,984.23
2017-03-01T03:08:12.837Z,984.23
2017-03-01T03:09:22.601Z,984.24
2017-03-01T03:10:32.391Z,984.28
2017-03-01T03:11:42.143Z,984.24
2017-03-01T03:12:53.238Z,984.26
2017-03-01T03:14:03.445Z,984.25
2017-03-01T03:15:13.652Z,984.3
2017-03-01T03:16:23.453Z,984.26
2017-03-01T03:17:32.753Z,984.26
2017-03-01T03:18:42.506Z,984.28
2017-03-01T03:19:52.247Z,984.31
2017-03-01T03:21:02.884Z,984.3
2017-03-01T03:22:12.251Z,984.29
2017-03-01T03:23:21.573Z,984.32
2017-03-01T03:24:30.901Z,984.37
2017-03-01T03:25:41.534Z,984.35
2017-03-01T03:26:51.312Z,984.37
2017-03-01T03:28:01.545Z,984.41
2017-03-01T03:29:11.761Z,984.36
2017-03-01T03:30:21.502Z,984.39
2017-03-01T03:31:32.561Z,984.39
2017-03-01T03:32:41.900Z,984.43
2017-03-01T03:33:51.705Z,984.42
2017-03-01T03:35:01.492Z,984.42
2017-03-01T03:36:11.676Z,984.42
2017-03-01T03:37:21.426Z,984.46
2017-03-01T03:38:31.598Z,984.46
2017-03-01T03:39:41.845Z,984.46
2017-03-01T03:40:52.038Z,984.46
2017-03-01T03:42:01.790Z,984.42
2017-03-01T03:43:12.440Z,984.41
2017-03-01T03:44:22.625Z,984.48
2017-03-01T03:45:32.427Z,984.5
2017-03-01T03:46:41.774Z,984.5
2017-03-01T03:47:51.973Z,984.52
2017-03-01T03:49:01.731Z,984.54
2017-03-01T03:50:11.931Z,984.55
2017-03-01T03:51:21.756Z,984.6
2017-03-01T03:52:31.520Z,984.61
2017-03-01T03:53:42.577Z,984.64
2017-03-01T03:54:52.351Z,984.65
2017-03-01T03:56:02.993Z,984.68
2017-03-01T03:57:12.359Z,984.71
2017-03-01T03:58:22.130Z,984.72
2017-03-01T03:59:32.756Z,984.73
2017-03-01T04:00:42.061Z,984.76
2017-03-01T04:01:51.364Z,984.79
2017-03-01T04:03:00.735Z,984.79
2017-03-01T04:04:10.488Z,984.75
2017-03-01T04:05:20.254Z,984.77
2017-03-01T04:06:30.916Z,984.8
2017-03-01T04:07:41.537Z,984.76
2017-03-01T04:08:51.783Z,984.81
2017-03-01T04:10:02.404Z,984.79
2017-03-01T04:11:12.157Z,984.79
2017-03-01T04:12:21.489Z,984.86
2017-03-01T04:13:31.678Z,984.82
2017-03-01T04:14:41.475Z,984.82
2017-03-01T04:15:51.653Z,984.79
2017-03-01T04:17:01.855Z,984.78
2017-03-01T04:18:11.616Z,984.78
2017-03-01T04:19:21.376Z,984.77
2017-03-01T04:20:31.623Z,984.8
2017-03-01T04:21:41.799Z,984.76
2017-03-01T04:22:51.552Z,984.8
2017-03-01T04:24:00.921Z,984.82
2017-03-01T04:25:11.118Z,984.87
2017-03-01T04:26:21.375Z,984.88
2017-03-01T04:27:31.554Z,984.85
2017-03-01T04:28:41.308Z,984.85
2017-03-01T04:29:51.056Z,984.83
2017-03-01T04:31:00.817Z,984.83
2017-03-01T04:32:11.061Z,984.85
2017-03-01T04:33:22.101Z,984.81
2017-03-01T04:34:33.180Z,984.78
2017-03-01T04:35:42.490Z,984.81
2017-03-01T04:36:52.674Z,984.84
2017-03-01T04:38:02.467Z,984.88
2017-03-01T04:39:12.675Z,984.83
2017-03-01T04:40:22.884Z,984.82
2017-03-01T04:41:33.078Z,984.87
2017-03-01T04:42:43.700Z,984.86
2017-03-01T04:43:54.358Z,984.87
2017-03-01T04:45:03.671Z,984.92
2017-03-01T04:46:13.878Z,984.94
2017-03-01T04:47:24.055Z,984.97
2017-03-01T04:48:34.670Z,985.01
2017-03-01T04:49:44.905Z,985
2017-03-01T04:50:54.656Z,984.94
2017-03-01T04:52:05.289Z,984.97
2017-03-01T04:53:15.467Z,984.97
2017-03-01T04:54:25.640Z,985.03
2017-03-01T04:55:35.877Z,985.07
2017-03-01T04:56:46.062Z,985.09
2017-03-01T04:57:55.851Z,985.08
2017-03-01T04:59:06.031Z,985.09
2017-03-01T05:00:16.664Z,985.15
2017-03-01T05:01:26.903Z,985.15
2017-03-01T05:02:37.087Z,985.17
2017-03-01T05:03:46.861Z,985.14
2017-03-01T05:04:56.610Z,985.15
2017-03-01T05:06:06.795Z,985.13
2017-03-01T05:07:16.600Z,985.13
2017-03-01T05:08:26.356Z,985.12
2017-03-01T05:09:36.547Z,985.14
2017-03-01T05:10:46.736Z,985.13
2017-03-01T05:11:56.925Z,985.15
2017-03-01T05:13:06.839Z,985.12
2017-03-01T05:14:16.606Z,985.09
2017-03-01T05:15:27.246Z,985.08
2017-03-01T05:16:37.450Z,985.09
2017-03-01T05:17:47.211Z,985.11
2017-03-01T05:18:57.004Z,985.07
2017-03-01T05:20:06.753Z,985.08
2017-03-01T05:21:16.511Z,985.1
2017-03-01T05:22:26.688Z,985.11
2017-03-01T05:23:37.329Z,985.16
2017-03-01T05:24:47.130Z,985.16
2017-03-01T05:25:57.302Z,985.19
2017-03-01T05:27:07.499Z,985.14
2017-03-01T05:28:18.117Z,985.16
2017-03-01T05:29:28.294Z,985.14
2017-03-01T05:30:38.979Z,985.17
2017-03-01T05:31:49.613Z,985.19
2017-03-01T05:32:58.931Z,985.15
2017-03-01T05:34:08.671Z,985.15
2017-03-01T05:35:19.296Z,985.1
2017-03-01T05:36:30.546Z,985.13
2017-03-01T05:37:40.303Z,985.11
2017-03-01T05:38:50.052Z,985.13
2017-03-01T05:40:00.233Z,985.18
2017-03-01T05:41:09.987Z,985.15
2017-03-01T05:42:20.232Z,985.18
2017-03-01T05:43:29.537Z,985.18
2017-03-01T05:44:39.706Z,985.2
2017-03-01T05:45:49.443Z,985.2
2017-03-01T05:46:59.637Z,985.23
2017-03-01T05:48:09.888Z,985.25
2017-03-01T05:49:20.523Z,985.26
2017-03-01T05:50:30.275Z,985.22
2017-03-01T05:51:40.461Z,985.22
2017-03-01T05:52:50.218Z,985.22
2017-03-01T05:54:00.024Z,985.27
2017-03-01T05:55:09.357Z,985.27
2017-03-01T05:56:19.538Z,985.25
2017-03-01T05:57:28.863Z,985.32
2017-03-01T05:58:38.620Z,985.31
2017-03-01T05:59:47.985Z,985.27
2017-03-01T06:00:57.733Z,985.28
2017-03-01T06:02:07.922Z,985.28
2017-03-01T06:03:18.544Z,985.26
2017-03-01T06:04:28.735Z,985.24
2017-03-01T06:05:38.106Z,985.32
2017-03-01T06:06:47.863Z,985.26
2017-03-01T06:07:57.610Z,985.28
2017-03-01T06:09:07.370Z,985.3
2017-03-01T06:10:18.000Z,985.31
2017-03-01T06:11:27.805Z,985.31
2017-03-01T06:12:37.585Z,985.3
2017-03-01T06:13:47.323Z,985.31
2017-03-01T06:14:57.504Z,985.33
2017-03-01T06:16:07.706Z,985.3
2017-03-01T06:17:17.972Z,985.28
2017-03-01T06:18:28.595Z,985.27
2017-03-01T06:19:38.793Z,985.32
2017-03-01T06:20:48.549Z,985.34
2017-03-01T06:21:59.172Z,985.36
2017-03-01T06:23:08.529Z,985.38
2017-03-01T06:24:18.273Z,985.36
2017-03-01T06:25:28.032Z,985.34
2017-03-01T06:26:37.795Z,985.36
2017-03-01T06:27:48.421Z,985.35
2017-03-01T06:28:58.824Z,985.37
2017-03-01T06:30:08.145Z,985.4
2017-03-01T06:31:17.918Z,985.35
2017-03-01T06:32:27.215Z,985.35
2017-03-01T06:33:37.421Z,985.32
2017-03-01T06:34:47.665Z,985.34
2017-03-01T06:35:56.985Z,985.31
2017-03-01T06:37:07.612Z,985.31
2017-03-01T06:38:16.917Z,985.34
2017-03-01T06:39:27.116Z,985.35
2017-03-01T06:40:36.927Z,985.38
2017-03-01T06:41:48.017Z,985.37
2017-03-01T06:42:57.363Z,985.35
2017-03-01T06:44:07.139Z,985.37
2017-03-01T06:45:16.469Z,985.43
2017-03-01T06:46:26.269Z,985.49
2017-03-01T06:47:36.007Z,985.47
2017-03-01T06:48:46.202Z,985.46
2017-03-01T06:49:55.945Z,985.49
2017-03-01T06:51:05.686Z,985.48
2017-03-01T06:52:15.483Z,985.47
2017-03-01T06:53:25.252Z,985.41
2017-03-01T06:54:34.585Z,985.45
2017-03-01T06:55:44.334Z,985.48
2017-03-01T06:56:54.087Z,985.53
2017-03-01T06:58:05.193Z,985.47
2017-03-01T06:59:14.511Z,985.52
2017-03-01T07:00:25.120Z,985.48
2017-03-01T07:01:35.316Z,985.5
2017-03-01T07:02:45.938Z,985.55
2017-03-01T07:03:57.067Z,985.53
2017-03-01T07:05:06.387Z,985.55
2017-03-01T07:06:17.004Z,985.57
2017-03-01T07:07:27.210Z,985.56
2017-03-01T07:08:36.980Z,985.57
2017-03-01T07:09:46.768Z,985.56
2017-03-01T07:10:57.398Z,985.54
2017-03-01T07:12:07.150Z,985.51
2017-03-01T07:13:17.763Z,985.57
2017-03-01T07:14:27.949Z,985.55
2017-03-01T07:15:37.742Z,985.55
2017-03-01T07:16:47.935Z,985.57
2017-03-01T07:17:57.260Z,985.55
2017-03-01T07:19:07.893Z,985.58
2017-03-01T07:20:18.083Z,985.56
2017-03-01T07:21:28.326Z,985.57
2017-03-01T07:22:38.525Z,985.58
2017-03-01T07:23:49.148Z,985.58
2017-03-01T07:24:59.757Z,985.57
2017-03-01T07:26:09.525Z,985.59
2017-03-01T07:27:20.651Z,985.59
2017-03-01T07:28:31.277Z,985.57
2017-03-01T07:29:41.038Z,985.6
2017-03-01T07:30:50.813Z,985.58
2017-03-01T07:32:01.009Z,985.61
2017-03-01T07:33:11.829Z,985.58
2017-03-01T07:34:21.597Z,985.61
2017-03-01T07:35:32.230Z,985.64
2017-03-01T07:36:42.017Z,985.61
2017-03-01T07:37:51.797Z,985.64
2017-03-01T07:39:01.634Z,985.59
2017-03-01T07:40:12.287Z,985.61
2017-03-01T07:41:22.476Z,985.62
2017-03-01T07:42:32.778Z,985.63
2017-03-01T07:43:46.628Z,985.61
2017-03-01T07:44:58.693Z,985.56
2017-03-01T07:46:09.607Z,985.6
2017-03-01T07:47:19.536Z,985.57
2017-03-01T07:48:29.716Z,985.65
2017-03-01T07:49:40.434Z,985.6
2017-03-01T07:50:52.622Z,985.65
2017-03-01T07:52:04.711Z,985.66
2017-03-01T07:53:17.508Z,985.65
2017-03-01T07:54:28.647Z,985.65
2017-03-01T07:55:38.611Z,985.65
2017-03-01T07:56:51.360Z,985.65
2017-03-01T07:58:02.541Z,985.66
2017-03-01T07:59:14.192Z,985.7
2017-03-01T08:00:24.937Z,985.72
2017-03-01T08:01:34.251Z,985.7
2017-03-01T08:02:44.495Z,985.71
2017-03-01T08:03:54.676Z,985.68
2017-03-01T08:05:05.288Z,985.67
2017-03-01T08:06:15.479Z,985.69
2017-03-01T08:07:25.656Z,985.65
2017-03-01T08:08:35.442Z,985.7
2017-03-01T08:09:45.203Z,985.69
2017-03-01T08:10:54.979Z,985.65
2017-03-01T08:12:05.632Z,985.71
2017-03-01T08:13:15.848Z,985.74
2017-03-01T08:14:26.527Z,985.77
2017-03-01T08:15:37.149Z,985.78
2017-03-01T08:16:46.898Z,985.81
2017-03-01T08:17:57.535Z,985.86
2017-03-01T08:19:07.719Z,985.87
2017-03-01T08:20:17.952Z,985.85
2017-03-01T08:21:28.131Z,985.83
2017-03-01T08:22:37.882Z,985.89
2017-03-01T08:23:49.395Z,985.86
2017-03-01T08:24:59.591Z,985.89
2017-03-01T08:26:10.280Z,985.97
2017-03-01T08:27:19.583Z,985.95
2017-03-01T08:28:30.208Z,985.96
2017-03-01T08:29:40.406Z,985.99
2017-03-01T08:30:50.600Z,986.02
2017-03-01T08:32:01.269Z,986.05
2017-03-01T08:33:11.022Z,985.98
2017-03-01T08:34:21.228Z,986
2017-03-01T08:35:30.528Z,985.96
2017-03-01T08:36:40.736Z,985.99
2017-03-01T08:37:50.538Z,985.99
2017-03-01T08:39:01.155Z,985.99
2017-03-01T08:40:11.774Z,985.99
2017-03-01T08:41:21.529Z,985.97
2017-03-01T08:42:31.284Z,985.94
2017-03-01T08:43:41.537Z,985.94
2017-03-01T08:44:51.344Z,985.96
2017-03-01T08:46:01.091Z,985.96
2017-03-01T08:47:11.272Z,985.95
2017-03-01T08:48:21.461Z,985.93
2017-03-01T08:49:32.588Z,985.95
2017-03-01T08:50:42.783Z,985.9
2017-03-01T08:51:52.541Z,985.9
2017-03-01T08:53:02.741Z,985.98
2017-03-01T08:54:12.488Z,985.92
2017-03-01T08:55:22.740Z,985.91
2017-03-01T08:56:32.927Z,985.93
2017-03-01T08:57:43.556Z,985.94
2017-03-01T08:58:54.185Z,985.97
2017-03-01T09:00:03.971Z,985.97
2017-03-01T09:01:14.219Z,985.94
2017-03-01T09:02:23.971Z,985.91
2017-03-01T09:03:34.606Z,985.94
2017-03-01T09:04:44.359Z,985.92
2017-03-01T09:05:53.683Z,985.96
2017-03-01T09:07:03.482Z,985.96
2017-03-01T09:08:13.237Z,986.02
2017-03-01T09:09:23.006Z,986.01
2017-03-01T09:10:34.075Z,986
2017-03-01T09:11:44.290Z,986.02
2017-03-01T09:12:54.514Z,986.01
2017-03-01T09:14:04.712Z,986.02
2017-03-01T09:15:14.028Z,986.04
2017-03-01T09:16:25.530Z,985.99
2017-03-01T09:17:37.047Z,986.07
2017-03-01T09:18:48.169Z,986.04
2017-03-01T09:19:57.474Z,986.04
2017-03-01T09:21:06.804Z,986.05
2017-03-01T09:22:17.448Z,986.01
2017-03-01T09:23:27.631Z,986.02
2017-03-01T09:24:37.478Z,986.03
2017-03-01T09:25:47.673Z,986.02
2017-03-01T09:26:58.732Z,986.01
2017-03-01T09:28:08.935Z,986.07
2017-03-01T09:29:19.120Z,986.04
2017-03-01T09:30:28.924Z,986.09
2017-03-01T09:31:39.119Z,986.13
2017-03-01T09:32:48.882Z,986.13
2017-03-01T09:33:58.632Z,986.1
2017-03-01T09:35:09.272Z,986.14
2017-03-01T09:36:19.512Z,986.14
2017-03-01T09:37:28.833Z,986.16
2017-03-01T09:38:39.469Z,986.08
2017-03-01T09:39:49.243Z,986.09
2017-03-01T09:40:59.427Z,986.11
2017-03-01T09:42:10.146Z,986.11
2017-03-01T09:43:19.915Z,986.14
2017-03-01T09:44:30.088Z,986.15
2017-03-01T09:45:39.445Z,986.14
2017-03-01T09:46:49.654Z,986.14
2017-03-01T09:47:59.167Z,986.19
2017-03-01T09:49:08.920Z,986.16
2017-03-01T09:50:18.676Z,986.19
2017-03-01T09:51:29.745Z,986.16
2017-03-01T09:52:39.491Z,986.16
2017-03-01T09:53:49.429Z,986.22
2017-03-01T09:54:59.172Z,986.22
2017-03-01T09:56:09.385Z,986.25
2017-03-01T09:57:19.140Z,986.24
2017-03-01T09:58:29.318Z,986.25
2017-03-01T09:59:40.002Z,986.31
2017-03-01T10:00:49.312Z,986.4
2017-03-01T10:01:59.501Z,986.33
2017-03-01T10:03:09.685Z,986.34
2017-03-01T10:04:19.883Z,986.33
2017-03-01T10:05:30.563Z,986.42
2017-03-01T10:06:41.204Z,986.39
2017-03-01T10:07:51.402Z,986.45
2017-03-01T10:09:01.599Z,986.47
2017-03-01T10:10:11.353Z,986.48
2017-03-01T10:11:22.039Z,986.51
2017-03-01T10:12:32.232Z,986.5
2017-03-01T10:13:42.013Z,986.48
2017-03-01T10:14:51.766Z,986.51
2017-03-01T10:16:01.971Z,986.55
2017-03-01T10:17:12.203Z,986.53
2017-03-01T10:18:22.816Z,986.56
2017-03-01T10:19:32.583Z,986.55
2017-03-01T10:20:41.900Z,986.55
2017-03-01T10:21:52.538Z,986.54
2017-03-01T10:23:02.794Z,986.57
2017-03-01T10:24:13.420Z,986.57
2017-03-01T10:25:23.227Z,986.68
2017-03-01T10:26:33.842Z,986.68
2017-03-01T10:27:43.167Z,986.67
2017-03-01T10:28:52.952Z,986.66
2017-03-01T10:30:02.302Z,986.68
2017-03-01T10:31:12.515Z,986.7
2017-03-01T10:32:22.718Z,986.69
2017-03-01T10:33:32.483Z,986.67
2017-03-01T10:34:42.305Z,986.71
2017-03-01T10:35:52.934Z,986.74
2017-03-01T10:37:03.120Z,986.8
2017-03-01T10:38:12.874Z,986.79
2017-03-01T10:39:22.618Z,986.85
2017-03-01T10:40:31.999Z,986.82
2017-03-01T10:41:41.301Z,986.8
2017-03-01T10:42:51.919Z,986.81
2017-03-01T10:44:02.544Z,986.83
2017-03-01T10:45:11.851Z,986.82
2017-03-01T10:46:21.670Z,986.9
2017-03-01T10:47:31.859Z,986.87
2017-03-01T10:48:41.193Z,986.92
2017-03-01T10:49:51.828Z,986.86
2017-03-01T10:51:02.895Z,986.84
2017-03-01T10:52:13.138Z,986.86
2017-03-01T10:53:23.320Z,986.86
2017-03-01T10:54:33.532Z,986.86
2017-03-01T10:55:43.310Z,986.89
2017-03-01T10:56:53.503Z,986.93
2017-03-01T10:58:03.316Z,986.88
2017-03-01T10:59:14.375Z,986.92
2017-03-01T11:00:24.576Z,986.91
2017-03-01T11:01:33.945Z,986.89
2017-03-01T11:02:43.277Z,986.89
2017-03-01T11:03:53.951Z,986.86
2017-03-01T11:05:03.720Z,986.87
2017-03-01T11:06:13.492Z,986.88
2017-03-01T11:07:23.701Z,986.95
2017-03-01T11:08:34.356Z,986.92
2017-03-01T11:09:45.085Z,986.96
2017-03-01T11:10:54.838Z,986.87
2017-03-01T11:12:04.167Z,986.91
2017-03-01T11:13:13.911Z,986.9
2017-03-01T11:14:24.528Z,986.99
2017-03-01T11:15:34.757Z,986.98
2017-03-01T11:16:45.394Z,986.95
2017-03-01T11:17:56.012Z,986.98
2017-03-01T11:19:06.218Z,986.94
2017-03-01T11:20:15.958Z,986.96
2017-03-01T11:21:26.649Z,986.98
2017-03-01T11:22:36.838Z,986.98
2017-03-01T11:23:47.026Z,986.97
2017-03-01T11:24:56.344Z,986.93
2017-03-01T11:26:06.077Z,986.99
2017-03-01T11:27:15.642Z,987.03
2017-03-01T11:28:25.402Z,986.99
2017-03-01T11:29:36.020Z,987.04
2017-03-01T11:30:45.778Z,987.06
2017-03-01T11:31:55.543Z,987.08
2017-03-01T11:33:05.340Z,987.12
2017-03-01T11:34:14.676Z,987.15
2017-03-01T11:35:24.873Z,987.03
2017-03-01T11:36:35.070Z,987.13
2017-03-01T11:37:45.261Z,987.17
2017-03-01T11:38:55.066Z,987.09
2017-03-01T11:40:04.405Z,987.11
2017-03-01T11:41:15.020Z,987.14
2017-03-01T11:42:25.221Z,987.12
2017-03-01T11:43:34.578Z,987.18
2017-03-01T11:44:44.370Z,987.12
2017-03-01T11:45:54.993Z,987.15
2017-03-01T11:47:04.760Z,987.15
2017-03-01T11:48:14.506Z,987.1
2017-03-01T11:49:24.712Z,987.22
2017-03-01T11:50:34.536Z,987.22
2017-03-01T11:51:44.286Z,987.17
2017-03-01T11:52:53.619Z,987.19
2017-03-01T11:54:04.243Z,987.18
2017-03-01T11:55:14.890Z,987.26
2017-03-01T11:56:25.142Z,987.22
2017-03-01T11:57:35.348Z,987.27
2017-03-01T11:58:45.109Z,987.27
2017-03-01T11:59:54.434Z,987.29
2017-03-01T12:01:04.606Z,987.33
2017-03-01T12:02:14.407Z,987.34
2017-03-01T12:03:24.180Z,987.4
2017-03-01T12:04:34.375Z,987.42
2017-03-01T12:05:43.699Z,987.41
2017-03-01T12:06:53.445Z,987.4
2017-03-01T12:08:04.117Z,987.46
2017-03-01T12:09:14.320Z,987.39
2017-03-01T12:10:24.523Z,987.4
2017-03-01T12:11:34.276Z,987.42
2017-03-01T12:12:44.903Z,987.36
2017-03-01T12:13:55.148Z,987.36
2017-03-01T12:15:04.908Z,987.41
2017-03-01T12:16:15.115Z,987.34
2017-03-01T12:17:24.872Z,987.38
2017-03-01T12:18:35.057Z,987.36
2017-03-01T12:19:44.860Z,987.35
2017-03-01T12:20:54.607Z,987.33
2017-03-01T12:22:04.379Z,987.37
2017-03-01T12:23:14.593Z,987.37
2017-03-01T12:24:24.786Z,987.36
2017-03-01T12:25:35.126Z,987.4
2017-03-01T12:26:45.748Z,987.44
2017-03-01T12:27:55.930Z,987.43
2017-03-01T12:29:05.675Z,987.41
2017-03-01T12:30:15.856Z,987.38
2017-03-01T12:31:25.662Z,987.31
2017-03-01T12:32:34.982Z,987.32
2017-03-01T12:33:45.166Z,987.33
2017-03-01T12:34:56.665Z,987.31
2017-03-01T12:36:06.849Z,987.36
2017-03-01T12:37:17.107Z,987.3
2017-03-01T12:38:26.423Z,987.31
2017-03-01T12:39:37.072Z,987.18
2017-03-01T12:40:47.687Z,987.29
2017-03-01T12:41:57.447Z,987.26
2017-03-01T12:43:08.569Z,987.32
2017-03-01T12:44:18.750Z,987.33
2017-03-01T12:45:28.515Z,987.27
2017-03-01T12:46:38.709Z,987.29
2017-03-01T12:47:48.893Z,987.35
2017-03-01T12:48:59.577Z,987.28
2017-03-01T12:50:09.759Z,987.4
2017-03-01T12:51:19.089Z,987.27
2017-03-01T12:52:28.831Z,987.33
2017-03-01T12:53:39.020Z,987.34
2017-03-01T12:54:49.718Z,987.36
2017-03-01T12:55:59.485Z,987.35
2017-03-01T12:57:10.134Z,987.38
2017-03-01T12:58:20.312Z,987.4
2017-03-01T12:59:30.506Z,987.47
2017-03-01T13:00:40.295Z,987.47
2017-03-01T13:01:49.611Z,987.5
2017-03-01T13:02:58.937Z,987.59
2017-03-01T13:04:09.119Z,987.69
2017-03-01T13:05:19.307Z,987.71
2017-03-01T13:06:29.546Z,987.77
2017-03-01T13:07:39.322Z,987.79
2017-03-01T13:08:49.958Z,987.84
2017-03-01T13:10:00.589Z,987.87
2017-03-01T13:11:10.330Z,987.89
2017-03-01T13:12:20.119Z,987.93
2017-03-01T13:13:29.892Z,987.93
2017-03-01T13:14:40.065Z,987.94
2017-03-01T13:15:50.242Z,987.97
2017-03-01T13:16:59.600Z,987.99
2017-03-01T13:18:09.864Z,988.02
2017-03-01T13:19:20.082Z,988.11
2017-03-01T13:20:29.843Z,988.13
2017-03-01T13:21:40.045Z,988.19
2017-03-01T13:22:50.226Z,988.24
2017-03-01T13:24:00.029Z,988.26
2017-03-01T13:25:10.660Z,988.35
2017-03-01T13:26:19.985Z,988.29
2017-03-01T13:27:29.298Z,988.43
2017-03-01T13:28:39.910Z,988.42
2017-03-01T13:29:49.712Z,988.39
2017-03-01T13:30:59.446Z,988.31
2017-03-01T13:32:09.647Z,988.34
2017-03-01T13:33:19.848Z,988.38
2017-03-01T13:34:30.483Z,988.4
2017-03-01T13:35:40.273Z,988.43
2017-03-01T13:36:50.462Z,988.43
2017-03-01T13:38:01.074Z,988.47
2017-03-01T13:39:11.256Z,988.51
2017-03-01T13:40:20.995Z,988.52
2017-03-01T13:41:30.809Z,988.59
2017-03-01T13:42:45.600Z,988.61
2017-03-01T13:43:55.353Z,988.65
2017-03-01T13:45:05.102Z,988.68
2017-03-01T13:46:16.167Z,988.7
2017-03-01T13:47:26.413Z,988.63
2017-03-01T13:48:37.050Z,988.68
2017-03-01T13:49:47.688Z,988.69
2017-03-01T13:50:57.008Z,988.75
2017-03-01T13:52:07.621Z,988.8
2017-03-01T13:53:17.856Z,988.78
2017-03-01T13:54:27.157Z,988.81
2017-03-01T13:55:37.789Z,988.81
2017-03-01T13:56:47.536Z,988.79
2017-03-01T13:57:57.739Z,988.77
2017-03-01T13:59:07.582Z,988.71
2017-03-01T14:00:17.759Z,988.73
2017-03-01T14:01:27.515Z,988.72
2017-03-01T14:02:37.698Z,988.73
2017-03-01T14:03:47.903Z,988.7
2017-03-01T14:04:57.259Z,988.83
2017-03-01T14:06:07.892Z,988.8
2017-03-01T14:07:17.661Z,988.78
2017-03-01T14:08:27.855Z,988.84
2017-03-01T14:09:38.048Z,988.88
2017-03-01T14:10:47.853Z,988.95
2017-03-01T14:11:57.631Z,988.92
2017-03-01T14:13:06.969Z,989
2017-03-01T14:14:16.302Z,989.04
2017-03-01T14:15:25.652Z,989.04
2017-03-01T14:16:35.013Z,989.1
2017-03-01T14:17:44.348Z,989.05
2017-03-01T14:18:54.551Z,989.07
2017-03-01T14:20:04.732Z,989.1
2017-03-01T14:21:15.362Z,989.14
2017-03-01T14:22:24.769Z,989.11
2017-03-01T14:23:35.391Z,989.14
2017-03-01T14:24:45.161Z,989.18
2017-03-01T14:25:54.908Z,989.16
2017-03-01T14:27:05.103Z,989.17
2017-03-01T14:28:16.233Z,989.21
2017-03-01T14:29:26.862Z,989.21
2017-03-01T14:30:36.622Z,989.25
2017-03-01T14:31:46.843Z,989.28
2017-03-01T14:32:57.482Z,989.29
2017-03-01T14:34:07.739Z,989.3
2017-03-01T14:35:17.936Z,989.25
2017-03-01T14:36:27.692Z,989.3
2017-03-01T14:37:37.877Z,989.26